createdAt,value
2018-06-25T00:00:51.539Z,1.37
2018-06-25T00:03:24.661Z,1.40
2018-06-25T00:05:57.663Z,1.30
2018-06-25T00:08:30.616Z,1.93
2018-06-25T00:11:03.615Z,1.40
2018-06-25T00:13:37.171Z,1.30
2018-06-25T00:16:10.131Z,1.60
2018-06-25T00:18:43.263Z,1.40
2018-06-25T00:21:17.092Z,1.27
2018-06-25T00:23:50.181Z,1.30
2018-06-25T00:26:23.717Z,1.50
2018-06-25T00:28:56.861Z,2.03
2018-06-25T00:31:30.238Z,2.07
2018-06-25T00:34:03.274Z,1.40
2018-06-25T00:36:36.294Z,1.70
2018-06-25T00:39:12.835Z,1.67
2018-06-25T00:41:45.905Z,1.90
2018-06-25T00:44:19.071Z,1.63
2018-06-25T00:46:52.169Z,1.57
2018-06-25T00:49:25.268Z,1.33
2018-06-25T00:51:58.347Z,1.87
2018-06-25T00:54:31.360Z,2.10
2018-06-25T00:57:04.521Z,2.47
2018-06-25T00:59:46.461Z,2.40
2018-06-25T01:02:19.613Z,1.60
2018-06-25T01:04:53.136Z,2.20
2018-06-25T01:07:26.147Z,2.10
2018-06-25T01:09:59.461Z,1.87
2018-06-25T01:12:32.543Z,1.67
2018-06-25T01:15:05.670Z,1.77
2018-06-25T01:17:38.973Z,2.20
2018-06-25T01:20:12.033Z,2.40
2018-06-25T01:22:44.985Z,2.57
2018-06-25T01:25:17.977Z,2.17
2018-06-25T01:27:50.097Z,2.00
2018-06-25T01:30:23.093Z,2.60
2018-06-25T01:32:56.142Z,2.27
2018-06-25T01:35:29.196Z,2.27
2018-06-25T01:38:02.217Z,1.93
2018-06-25T01:40:34.191Z,2.30
2018-06-25T01:43:07.244Z,2.17
2018-06-25T01:45:40.361Z,2.30
2018-06-25T01:48:13.381Z,2.33
2018-06-25T01:50:46.360Z,2.70
2018-06-25T01:53:20.408Z,2.30
2018-06-25T01:55:53.383Z,2.20
2018-06-25T01:58:26.440Z,2.10
2018-06-25T02:00:59.473Z,2.13
2018-06-25T02:03:32.479Z,2.00
2018-06-25T02:06:05.258Z,2.47
2018-06-25T02:08:39.204Z,2.20
2018-06-25T02:11:13.141Z,2.50
2018-06-25T02:13:46.157Z,2.37
2018-06-25T02:16:19.258Z,2.30
2018-06-25T02:18:51.351Z,2.30
2018-06-25T02:21:24.461Z,2.43
2018-06-25T02:23:57.920Z,2.67
2018-06-25T02:26:30.991Z,3.10
2018-06-25T02:29:03.975Z,2.27
2018-06-25T02:31:37.070Z,3.03
2018-06-25T02:34:11.371Z,3.03
2018-06-25T02:36:44.462Z,2.60
2018-06-25T02:39:17.544Z,2.70
2018-06-25T02:41:50.588Z,2.37
2018-06-25T02:44:23.748Z,2.80
2018-06-25T02:46:56.868Z,2.50
2018-06-25T02:49:30.437Z,2.60
2018-06-25T02:52:03.599Z,2.60
2018-06-25T02:54:36.716Z,3.17
2018-06-25T02:57:09.709Z,3.60
2018-06-25T02:59:42.797Z,2.80
2018-06-25T03:02:15.771Z,2.67
2018-06-25T03:04:48.788Z,3.30
2018-06-25T03:07:21.789Z,2.60
2018-06-25T03:09:56.032Z,2.65
2018-06-25T03:12:30.185Z,2.27
2018-06-25T03:15:03.584Z,2.70
2018-06-25T03:17:36.621Z,2.10
2018-06-25T03:20:10.555Z,2.50
2018-06-25T03:22:43.604Z,3.07
2018-06-25T03:25:16.708Z,2.60
2018-06-25T03:27:49.805Z,2.63
2018-06-25T03:30:22.859Z,2.63
2018-06-25T03:32:55.914Z,2.33
2018-06-25T03:35:28.918Z,2.43
2018-06-25T03:38:02.012Z,2.43
2018-06-25T03:40:35.082Z,2.30
2018-06-25T03:43:08.346Z,2.70
2018-06-25T03:45:41.429Z,3.10
2018-06-25T03:48:14.553Z,2.43
2018-06-25T03:50:47.613Z,2.30
2018-06-25T03:53:20.652Z,2.17
2018-06-25T03:55:53.814Z,2.80
2018-06-25T03:58:27.069Z,2.77
2018-06-25T04:01:00.256Z,2.30
2018-06-25T04:03:34.157Z,2.73
2018-06-25T04:06:07.208Z,2.90
2018-06-25T04:08:41.168Z,2.27
2018-06-25T04:11:14.265Z,2.53
2018-06-25T04:13:47.391Z,3.13
2018-06-25T04:16:20.673Z,3.07
2018-06-25T04:18:57.269Z,2.97
2018-06-25T04:21:30.281Z,2.77
2018-06-25T04:24:03.526Z,2.70
2018-06-25T04:26:36.668Z,2.90
2018-06-25T04:29:10.731Z,2.80
2018-06-25T04:31:43.676Z,3.07
2018-06-25T04:34:16.751Z,2.73
2018-06-25T04:36:49.820Z,2.60
2018-06-25T04:39:22.862Z,2.53
2018-06-25T04:41:56.112Z,3.63
2018-06-25T04:44:29.185Z,2.90
2018-06-25T04:47:02.177Z,2.93
2018-06-25T04:49:36.613Z,3.10
2018-06-25T04:52:09.733Z,2.90
2018-06-25T04:54:43.053Z,2.90
2018-06-25T04:57:16.052Z,2.63
2018-06-25T04:59:49.104Z,3.53
2018-06-25T05:02:22.037Z,2.97
2018-06-25T05:04:55.084Z,3.10
2018-06-25T05:07:28.201Z,2.77
2018-06-25T05:10:01.493Z,3.50
2018-06-25T05:12:34.782Z,3.10
2018-06-25T05:15:07.867Z,2.70
2018-06-25T05:17:40.888Z,3.40
2018-06-25T05:20:13.981Z,2.77
2018-06-25T05:22:47.003Z,2.70
2018-06-25T05:25:22.961Z,2.67
2018-06-25T05:27:56.049Z,2.90
2018-06-25T05:30:29.040Z,2.40
2018-06-25T05:33:02.145Z,2.67
2018-06-25T05:35:35.076Z,3.37
2018-06-25T05:38:08.312Z,3.37
2018-06-25T05:40:41.933Z,2.30
2018-06-25T05:43:14.978Z,2.70
2018-06-25T05:45:48.064Z,2.57
2018-06-25T05:48:22.092Z,2.37
2018-06-25T05:50:55.564Z,2.73
2018-06-25T05:53:28.687Z,2.60
2018-06-25T05:56:02.116Z,2.30
2018-06-25T05:58:35.268Z,2.13
2018-06-25T06:01:08.346Z,2.60
2018-06-25T06:03:41.369Z,2.50
2018-06-25T06:06:14.491Z,2.80
2018-06-25T06:08:47.643Z,2.40
2018-06-25T06:11:20.579Z,2.30
2018-06-25T06:13:53.639Z,2.40
2018-06-25T06:16:27.148Z,2.63
2018-06-25T06:19:00.234Z,2.50
2018-06-25T06:21:34.633Z,2.30
2018-06-25T06:24:07.652Z,2.63
2018-06-25T06:26:40.748Z,3.00
2018-06-25T06:29:13.912Z,2.47
2018-06-25T06:31:46.986Z,1.93
2018-06-25T06:34:18.748Z,2.93
2018-06-25T06:36:52.693Z,2.50
2018-06-25T06:39:25.807Z,2.30
2018-06-25T06:41:58.901Z,2.90
2018-06-25T06:44:32.028Z,2.10
2018-06-25T06:47:06.465Z,2.13
2018-06-25T06:49:39.543Z,2.40
2018-06-25T06:52:13.112Z,2.20
2018-06-25T06:54:46.234Z,2.30
2018-06-25T06:57:19.195Z,2.00
2018-06-25T06:59:52.271Z,2.50
2018-06-25T07:02:23.871Z,3.40
2018-06-25T07:04:57.039Z,2.47
2018-06-25T07:07:30.109Z,2.50
2018-06-25T07:10:03.225Z,2.73
2018-06-25T07:12:36.266Z,2.40
2018-06-25T07:15:13.216Z,2.43
2018-06-25T07:17:46.402Z,2.83
2018-06-25T07:20:19.974Z,2.33
2018-06-25T07:22:53.005Z,2.33
2018-06-25T07:25:26.079Z,2.20
2018-06-25T07:27:59.096Z,3.10
2018-06-25T07:30:32.596Z,2.33
2018-06-25T07:33:05.595Z,2.40
2018-06-25T07:35:38.635Z,2.70
2018-06-25T07:38:11.608Z,2.57
2018-06-25T07:40:44.600Z,2.50
2018-06-25T07:43:17.882Z,2.77
2018-06-25T07:45:50.868Z,2.30
2018-06-25T07:48:25.076Z,2.30
2018-06-25T07:50:58.101Z,2.57
2018-06-25T07:53:31.140Z,2.57
2018-06-25T07:56:04.257Z,2.33
2018-06-25T07:58:37.364Z,2.47
2018-06-25T08:01:11.144Z,2.10
2018-06-25T08:03:44.219Z,2.43
2018-06-25T08:06:17.335Z,2.57
2018-06-25T08:08:50.303Z,2.63
2018-06-25T08:11:23.473Z,1.73
2018-06-25T08:13:58.218Z,2.17
2018-06-25T08:16:31.320Z,2.13
2018-06-25T08:19:04.376Z,2.37
2018-06-25T08:21:37.419Z,2.17
2018-06-25T08:24:10.500Z,2.70
2018-06-25T08:26:45.087Z,2.33
2018-06-25T08:29:19.128Z,2.30
2018-06-25T08:31:52.111Z,2.47
2018-06-25T08:34:25.356Z,2.20
2018-06-25T08:36:58.529Z,2.33
2018-06-25T08:39:32.715Z,1.90
2018-06-25T08:42:05.705Z,1.77
2018-06-25T08:44:38.842Z,1.77
2018-06-25T08:47:12.035Z,2.07
2018-06-25T08:49:45.060Z,1.50
2018-06-25T08:52:18.152Z,2.10
2018-06-25T08:54:51.131Z,1.93
2018-06-25T08:57:24.484Z,2.10
2018-06-25T08:59:57.434Z,1.43
2018-06-25T09:02:31.146Z,1.60
2018-06-25T09:05:04.148Z,1.43
2018-06-25T09:07:38.187Z,1.80
2018-06-25T09:10:09.813Z,1.40
2018-06-25T09:12:42.872Z,1.80
2018-06-25T09:15:15.947Z,1.60
2018-06-25T09:17:49.108Z,1.80
2018-06-25T09:20:22.221Z,2.00
2018-06-25T09:22:55.461Z,1.80
2018-06-25T09:25:28.474Z,1.67
2018-06-25T09:28:07.922Z,1.50
2018-06-25T09:30:40.973Z,1.50
2018-06-25T09:33:13.913Z,1.30
2018-06-25T09:35:47.766Z,1.33
2018-06-25T09:38:20.925Z,1.47
2018-06-25T09:40:54.054Z,1.67
2018-06-25T09:43:27.202Z,1.70
2018-06-25T09:46:00.348Z,1.40
2018-06-25T09:48:34.339Z,1.63
2018-06-25T09:51:07.373Z,1.90
2018-06-25T09:53:40.979Z,1.90
2018-06-25T09:56:13.962Z,1.30
2018-06-25T09:58:47.008Z,1.80
2018-06-25T10:01:20.104Z,2.00
2018-06-25T10:03:53.243Z,2.50
2018-06-25T10:06:26.549Z,1.47
2018-06-25T10:08:59.543Z,1.80
2018-06-25T10:11:32.688Z,1.47
2018-06-25T10:14:05.828Z,1.40
2018-06-25T10:16:38.832Z,1.80
2018-06-25T10:19:12.013Z,1.20
2018-06-25T10:21:45.114Z,1.60
2018-06-25T10:24:19.781Z,1.90
2018-06-25T10:26:52.805Z,1.47
2018-06-25T10:29:25.876Z,1.80
2018-06-25T10:31:59.721Z,1.80
2018-06-25T10:34:32.718Z,1.50
2018-06-25T10:37:07.328Z,1.63
2018-06-25T10:39:40.513Z,1.73
2018-06-25T10:42:13.646Z,1.80
2018-06-25T10:44:46.684Z,1.53
2018-06-25T10:47:19.644Z,1.70
2018-06-25T10:49:52.916Z,1.70
2018-06-25T10:52:25.976Z,1.60
2018-06-25T10:54:59.020Z,1.60
2018-06-25T10:57:32.049Z,1.50
2018-06-25T11:00:05.296Z,1.40
2018-06-25T11:02:38.556Z,1.70
2018-06-25T11:05:11.630Z,1.60
2018-06-25T11:07:44.728Z,2.10
2018-06-25T11:10:17.971Z,1.30
2018-06-25T11:12:50.992Z,1.50
2018-06-25T11:15:25.742Z,2.10
2018-06-25T11:17:58.737Z,1.20
2018-06-25T11:20:31.828Z,1.73
2018-06-25T11:23:04.877Z,2.00
2018-06-25T11:25:37.970Z,1.70
2018-06-25T11:28:11.085Z,1.47
2018-06-25T11:30:44.176Z,1.57
2018-06-25T11:33:17.481Z,1.47
2018-06-25T11:35:50.632Z,1.47
2018-06-25T11:38:23.685Z,1.70
2018-06-25T11:40:56.752Z,1.87
2018-06-25T11:43:29.790Z,1.90
2018-06-25T11:46:02.840Z,1.67
2018-06-25T11:48:35.970Z,1.20
2018-06-25T11:51:09.082Z,1.93
2018-06-25T11:53:42.118Z,2.27
2018-06-25T11:56:15.136Z,2.03
2018-06-25T11:58:48.206Z,1.67
2018-06-25T12:01:21.293Z,1.80
2018-06-25T12:03:54.363Z,1.60
2018-06-25T12:06:27.370Z,1.80
2018-06-25T12:09:00.421Z,1.77
2018-06-25T12:11:33.491Z,1.50
2018-06-25T12:14:06.524Z,1.43
2018-06-25T12:16:40.326Z,1.80
2018-06-25T12:19:13.394Z,2.00
2018-06-25T12:21:46.736Z,2.13
2018-06-25T12:24:19.887Z,1.60
2018-06-25T12:26:54.219Z,1.70
2018-06-25T12:29:27.490Z,1.20
2018-06-25T12:32:00.533Z,1.50
2018-06-25T12:34:33.626Z,1.43
2018-06-25T12:37:06.700Z,1.80
2018-06-25T12:39:39.689Z,1.83
2018-06-25T12:42:13.457Z,1.70
2018-06-25T12:44:46.437Z,1.70
2018-06-25T12:47:19.552Z,1.77
2018-06-25T12:49:53.493Z,1.90
2018-06-25T12:52:26.535Z,1.97
2018-06-25T12:55:02.149Z,1.70
2018-06-25T12:57:35.890Z,1.53
2018-06-25T13:00:09.016Z,1.30
2018-06-25T13:02:42.931Z,1.80
2018-06-25T13:05:16.019Z,1.67
2018-06-25T13:07:50.555Z,2.03
2018-06-25T13:10:23.700Z,1.87
2018-06-25T13:12:58.363Z,1.70
2018-06-25T13:15:31.388Z,1.63
2018-06-25T13:18:04.454Z,1.80
2018-06-25T13:20:37.459Z,1.80
2018-06-25T13:23:11.163Z,3.00
2018-06-25T13:25:45.996Z,1.60
2018-06-25T13:28:19.037Z,1.50
2018-06-25T13:30:52.132Z,2.13
2018-06-25T13:33:25.197Z,1.80
2018-06-25T13:35:58.328Z,1.30
2018-06-25T13:38:31.412Z,1.63
2018-06-25T13:41:04.466Z,2.30
2018-06-25T13:43:37.497Z,1.70
2018-06-25T13:46:10.852Z,1.80
2018-06-25T13:48:43.880Z,1.80
2018-06-25T13:51:17.150Z,1.50
2018-06-25T13:53:50.197Z,1.70
2018-06-25T13:56:23.321Z,1.97
2018-06-25T13:58:56.785Z,1.70
2018-06-25T14:01:29.800Z,1.70
2018-06-25T14:04:03.257Z,1.73
2018-06-25T14:06:37.166Z,1.60
2018-06-25T14:09:13.336Z,2.00
2018-06-25T14:11:46.413Z,1.37
2018-06-25T14:14:19.598Z,1.60
2018-06-25T14:16:53.109Z,1.67
2018-06-25T14:19:26.279Z,1.47
2018-06-25T14:22:01.500Z,2.10
2018-06-25T14:24:39.620Z,3.27
2018-06-25T14:27:13.938Z,1.90
2018-06-25T14:29:47.887Z,1.70
2018-06-25T14:32:25.541Z,1.67
2018-06-25T14:35:02.828Z,2.17
2018-06-25T14:37:36.874Z,2.30
2018-06-25T14:40:09.941Z,1.60
2018-06-25T14:42:43.599Z,2.00
2018-06-25T14:45:17.158Z,1.80
2018-06-25T14:47:50.313Z,2.40
2018-06-25T14:50:23.380Z,2.33
2018-06-25T14:52:56.362Z,2.40
2018-06-25T14:55:29.485Z,2.27
2018-06-25T14:58:02.595Z,1.87
2018-06-25T15:00:36.575Z,2.10
2018-06-25T15:03:09.670Z,2.37
2018-06-25T15:05:42.581Z,2.17
2018-06-25T15:08:16.490Z,2.23
2018-06-25T15:10:50.671Z,2.10
2018-06-25T15:13:23.779Z,2.07
2018-06-25T15:15:57.895Z,2.30
2018-06-25T15:18:30.946Z,2.67
2018-06-25T15:21:04.046Z,2.70
2018-06-25T15:23:38.864Z,2.40
2018-06-25T15:26:11.393Z,2.13
2018-06-25T15:28:44.440Z,2.10
2018-06-25T15:31:17.526Z,3.07
2018-06-25T15:33:50.600Z,2.50
2018-06-25T15:36:23.589Z,2.47
2018-06-25T15:38:56.595Z,2.50
2018-06-25T15:41:29.647Z,3.03
2018-06-25T15:44:03.384Z,2.40
2018-06-25T15:46:37.065Z,2.40
2018-06-25T15:49:10.144Z,2.60
2018-06-25T15:51:43.200Z,2.20
2018-06-25T15:54:16.266Z,2.73
2018-06-25T15:56:49.297Z,2.50
2018-06-25T15:59:22.360Z,2.60
2018-06-25T16:01:55.407Z,1.60
2018-06-25T16:04:29.734Z,2.07
2018-06-25T16:07:02.824Z,2.30
2018-06-25T16:09:36.028Z,2.43
2018-06-25T16:12:09.219Z,2.07
2018-06-25T16:14:42.264Z,2.30
2018-06-25T16:17:15.347Z,2.37
2018-06-25T16:19:48.400Z,2.20
2018-06-25T16:22:21.612Z,1.93
2018-06-25T16:24:54.661Z,2.20
2018-06-25T16:27:27.867Z,2.23
2018-06-25T16:29:59.489Z,1.90
2018-06-25T16:32:35.741Z,1.60
2018-06-25T16:35:08.798Z,1.53
2018-06-25T16:37:41.860Z,1.97
2018-06-25T16:40:14.945Z,2.00
2018-06-25T16:42:47.961Z,2.10
2018-06-25T16:45:21.033Z,2.07
2018-06-25T16:47:54.090Z,1.90
2018-06-25T16:50:27.201Z,2.10
2018-06-25T16:53:00.359Z,1.70
2018-06-25T16:55:33.436Z,1.57
2018-06-25T16:58:06.492Z,2.17
2018-06-25T17:00:39.584Z,1.87
2018-06-25T17:03:12.714Z,1.80
2018-06-25T17:05:44.269Z,1.67
2018-06-25T17:08:17.397Z,2.20
2018-06-25T17:10:51.746Z,1.70
2018-06-25T17:13:24.772Z,2.13
2018-06-25T17:15:57.840Z,2.43
2018-06-25T17:18:30.850Z,2.00
2018-06-25T17:21:03.879Z,1.60
2018-06-25T17:23:37.291Z,1.73
2018-06-25T17:26:10.416Z,1.97
2018-06-25T17:28:43.425Z,1.83
2018-06-25T17:31:18.105Z,1.80
2018-06-25T17:33:51.129Z,1.90
2018-06-25T17:36:25.683Z,1.93
2018-06-25T17:38:59.267Z,2.40
2018-06-25T17:41:33.018Z,1.80
2018-06-25T17:44:06.814Z,1.70
2018-06-25T17:46:40.611Z,2.27
2018-06-25T17:49:15.218Z,1.63
2018-06-25T17:51:49.980Z,1.80
2018-06-25T17:54:23.656Z,2.07
2018-06-25T17:56:57.762Z,1.93
2018-06-25T17:59:30.952Z,1.70
2018-06-25T18:02:04.450Z,1.80
2018-06-25T18:04:37.312Z,2.00
2018-06-25T18:07:09.042Z,1.60
2018-06-25T18:09:42.174Z,1.97
2018-06-25T18:12:16.278Z,1.73
2018-06-25T18:14:49.856Z,1.90
2018-06-25T18:17:23.702Z,1.50
2018-06-25T18:19:59.435Z,1.60
2018-06-25T18:22:32.602Z,2.27
2018-06-25T18:25:05.845Z,1.83
2018-06-25T18:27:38.936Z,2.10
2018-06-25T18:30:12.461Z,1.60
2018-06-25T18:32:46.550Z,2.07
2018-06-25T18:35:19.751Z,1.73
2018-06-25T18:37:53.497Z,1.27
2018-06-25T18:40:26.487Z,2.00
2018-06-25T18:42:59.909Z,1.53
2018-06-25T18:45:33.061Z,1.77
2018-06-25T18:48:06.176Z,1.60
2018-06-25T18:50:39.202Z,1.70
2018-06-25T18:53:13.115Z,2.30
2018-06-25T18:55:46.065Z,2.00
2018-06-25T18:58:20.167Z,2.10
2018-06-25T19:00:53.204Z,1.50
2018-06-25T19:03:26.218Z,1.57
2018-06-25T19:05:59.124Z,1.70
2018-06-25T19:08:32.237Z,2.10
2018-06-25T19:11:05.954Z,1.90
2018-06-25T19:13:40.871Z,1.63
2018-06-25T19:16:14.590Z,1.87
2018-06-25T19:18:47.551Z,1.93
2018-06-25T19:21:20.513Z,2.20
2018-06-25T19:23:53.628Z,1.60
2018-06-25T19:26:26.615Z,2.70
2018-06-25T19:28:59.769Z,1.53
2018-06-25T19:31:32.723Z,1.97
2018-06-25T19:34:05.724Z,1.97
2018-06-25T19:36:38.632Z,1.80
2018-06-25T19:39:15.054Z,1.80
2018-06-25T19:41:48.049Z,2.10
2018-06-25T19:44:20.956Z,1.67
2018-06-25T19:46:53.953Z,1.93
2018-06-25T19:49:27.007Z,1.70
2018-06-25T19:52:00.046Z,1.67
2018-06-25T19:54:34.628Z,2.03
2018-06-25T19:57:07.878Z,2.10
2018-06-25T19:59:41.278Z,1.60
2018-06-25T20:02:14.276Z,2.10
2018-06-25T20:04:48.480Z,1.93
2018-06-25T20:07:21.731Z,2.00
2018-06-25T20:09:54.735Z,1.70
2018-06-25T20:12:28.034Z,1.43
2018-06-25T20:15:00.997Z,1.73
2018-06-25T20:17:33.987Z,1.90
2018-06-25T20:20:08.454Z,1.80
2018-06-25T20:22:41.501Z,1.93
2018-06-25T20:25:14.498Z,1.57
2018-06-25T20:27:47.618Z,1.90
2018-06-25T20:30:20.671Z,2.20
2018-06-25T20:32:53.749Z,1.63
2018-06-25T20:35:26.749Z,1.63
2018-06-25T20:37:59.778Z,2.10
2018-06-25T20:40:32.869Z,1.80
2018-06-25T20:43:04.530Z,1.90
2018-06-25T20:45:37.538Z,2.00
2018-06-25T20:48:10.878Z,1.63
2018-06-25T21:19:45.260Z,2.20
2018-06-25T21:22:19.082Z,2.30
2018-06-25T21:24:52.221Z,1.90
2018-06-25T21:27:26.149Z,2.20
2018-06-25T21:29:59.742Z,2.07
2018-06-25T21:32:32.755Z,1.97
2018-06-25T21:35:05.749Z,2.30
2018-06-25T21:37:38.837Z,2.30
2018-06-25T21:40:11.930Z,2.00
2018-06-25T21:42:46.047Z,1.90
2018-06-25T21:45:19.125Z,2.00
2018-06-25T21:47:52.189Z,2.60
2018-06-25T21:50:25.077Z,2.30
2018-06-25T21:52:58.161Z,2.17
2018-06-25T21:55:31.966Z,2.43
2018-06-25T21:58:04.941Z,2.03
2018-06-25T22:00:46.852Z,1.93
2018-06-25T22:03:19.928Z,2.10
2018-06-25T22:05:52.845Z,2.10
2018-06-25T22:08:25.920Z,3.10
2018-06-25T22:10:59.053Z,1.87
2018-06-25T22:13:32.196Z,2.47
2018-06-25T22:16:05.256Z,2.17
2018-06-25T22:18:38.320Z,2.30
2018-06-25T22:21:11.270Z,2.30
2018-06-25T22:23:44.141Z,2.83
2018-06-25T22:26:15.803Z,2.20
2018-06-25T22:28:48.763Z,1.73
2018-06-25T22:31:21.694Z,2.47
2018-06-25T22:33:54.694Z,1.90
2018-06-25T22:36:27.667Z,2.70
2018-06-25T22:39:00.604Z,2.30
2018-06-25T22:41:33.609Z,1.80
2018-06-25T22:44:14.457Z,2.30
2018-06-25T22:46:47.434Z,2.03
2018-06-25T22:49:20.338Z,1.77
2018-06-25T22:51:53.261Z,1.80
2018-06-25T22:54:26.984Z,2.10
2018-06-25T22:56:59.989Z,1.57
2018-06-25T22:59:33.021Z,1.93
2018-06-25T23:02:05.956Z,1.80
2018-06-25T23:04:38.907Z,2.00
2018-06-25T23:07:11.889Z,2.03
2018-06-25T23:09:44.855Z,1.97
2018-06-25T23:12:18.869Z,1.40
2018-06-25T23:14:53.079Z,1.80
2018-06-25T23:17:25.966Z,1.80
2018-06-25T23:19:58.965Z,1.50
2018-06-25T23:22:30.407Z,1.60
2018-06-25T23:25:03.314Z,1.83
2018-06-25T23:27:36.341Z,1.93
2018-06-25T23:30:09.618Z,1.83
2018-06-25T23:32:42.607Z,1.60
2018-06-25T23:35:15.644Z,1.57
2018-06-25T23:37:48.675Z,1.57
2018-06-25T23:40:21.716Z,1.50
2018-06-25T23:42:54.718Z,1.60
2018-06-25T23:45:28.695Z,1.30
2018-06-25T23:48:01.656Z,1.67
2018-06-25T23:50:34.553Z,1.60
2018-06-25T23:53:07.567Z,1.30
2018-06-25T23:55:40.712Z,1.63
2018-06-25T23:58:13.872Z,1.40
